sensor_id;sensor_type;location;lat;lon;timestamp;P1;durP1;ratioP1;P2;durP2;ratioP2
20734;SDS011;10528;52.124;5.196;2022-08-04T00:00:18;4.38;;;2.30;;
20734;SDS011;10528;52.124;5.196;2022-08-04T00:02:51;6.63;;;2.00;;
20734;SDS011;10528;52.124;5.196;2022-08-04T00:05:40;4.90;;;2.08;;
20734;SDS011;10528;52.124;5.196;2022-08-04T00:08:45;5.28;;;2.30;;
20734;SDS011;10528;52.124;5.196;2022-08-04T00:11:22;6.25;;;2.15;;
20734;SDS011;10528;52.124;5.196;2022-08-04T00:14:05;4.95;;;2.30;;
20734;SDS011;10528;52.124;5.196;2022-08-04T00:16:39;4.03;;;1.48;;
20734;SDS011;10528;52.124;5.196;2022-08-04T00:19:15;9.07;;;1.80;;
20734;SDS011;10528;52.124;5.196;2022-08-04T00:21:55;4.32;;;1.95;;
20734;SDS011;10528;52.124;5.196;2022-08-04T00:24:30;2.72;;;1.80;;
20734;SDS011;10528;52.124;5.196;2022-08-04T00:26:57;4.60;;;2.10;;
20734;SDS011;10528;52.124;5.196;2022-08-04T00:29:25;5.63;;;2.22;;
20734;SDS011;10528;52.124;5.196;2022-08-04T00:31:54;3.45;;;2.03;;
20734;SDS011;10528;52.124;5.196;2022-08-04T00:34:26;3.72;;;1.80;;
20734;SDS011;10528;52.124;5.196;2022-08-04T00:36:55;3.65;;;1.92;;
20734;SDS011;10528;52.124;5.196;2022-08-04T00:39:23;5.72;;;2.08;;
20734;SDS011;10528;52.124;5.196;2022-08-04T00:48:28;5.03;;;2.40;;
20734;SDS011;10528;52.124;5.196;2022-08-04T00:51:48;3.90;;;2.20;;
20734;SDS011;10528;52.124;5.196;2022-08-04T01:00:42;3.53;;;2.10;;
20734;SDS011;10528;52.124;5.196;2022-08-04T01:03:43;4.03;;;2.05;;
20734;SDS011;10528;52.124;5.196;2022-08-04T01:15:44;3.88;;;2.20;;
20734;SDS011;10528;52.124;5.196;2022-08-04T01:24:00;4.07;;;2.17;;
20734;SDS011;10528;52.124;5.196;2022-08-04T01:26:51;4.40;;;2.05;;
20734;SDS011;10528;52.124;5.196;2022-08-04T01:29:55;4.55;;;2.10;;
20734;SDS011;10528;52.124;5.196;2022-08-04T01:32:37;5.30;;;2.55;;
20734;SDS011;10528;52.124;5.196;2022-08-04T01:35:19;6.30;;;2.53;;
20734;SDS011;10528;52.124;5.196;2022-08-04T01:40:51;3.00;;;1.60;;
20734;SDS011;10528;52.124;5.196;2022-08-04T01:43:22;3.95;;;2.00;;
20734;SDS011;10528;52.124;5.196;2022-08-04T01:45:51;4.53;;;2.17;;
20734;SDS011;10528;52.124;5.196;2022-08-04T01:48:25;4.65;;;1.92;;
20734;SDS011;10528;52.124;5.196;2022-08-04T01:50:56;4.82;;;2.10;;
20734;SDS011;10528;52.124;5.196;2022-08-04T01:53:31;2.88;;;1.90;;
20734;SDS011;10528;52.124;5.196;2022-08-04T01:56:01;4.22;;;1.80;;
20734;SDS011;10528;52.124;5.196;2022-08-04T01:58:30;3.30;;;2.00;;
20734;SDS011;10528;52.124;5.196;2022-08-04T02:01:00;4.13;;;1.85;;
20734;SDS011;10528;52.124;5.196;2022-08-04T02:03:34;2.75;;;1.90;;
20734;SDS011;10528;52.124;5.196;2022-08-04T02:06:33;4.07;;;2.20;;
20734;SDS011;10528;52.124;5.196;2022-08-04T02:15:26;4.35;;;2.00;;
20734;SDS011;10528;52.124;5.196;2022-08-04T02:18:31;4.90;;;1.80;;
20734;SDS011;10528;52.124;5.196;2022-08-04T02:21:40;4.50;;;2.08;;
20734;SDS011;10528;52.124;5.196;2022-08-04T02:24:11;4.95;;;2.72;;
20734;SDS011;10528;52.124;5.196;2022-08-04T02:26:44;4.70;;;1.95;;
20734;SDS011;10528;52.124;5.196;2022-08-04T02:29:18;3.08;;;1.75;;
20734;SDS011;10528;52.124;5.196;2022-08-04T02:32:05;6.68;;;2.10;;
20734;SDS011;10528;52.124;5.196;2022-08-04T02:35:24;5.05;;;2.05;;
20734;SDS011;10528;52.124;5.196;2022-08-04T02:37:41;5.05;;;2.20;;
20734;SDS011;10528;52.124;5.196;2022-08-04T02:40:16;4.05;;;2.03;;
20734;SDS011;10528;52.124;5.196;2022-08-04T02:42:47;5.25;;;2.40;;
20734;SDS011;10528;52.124;5.196;2022-08-04T02:45:17;4.10;;;1.95;;
20734;SDS011;10528;52.124;5.196;2022-08-04T02:47:46;3.97;;;2.10;;
20734;SDS011;10528;52.124;5.196;2022-08-04T02:50:38;4.50;;;1.95;;
20734;SDS011;10528;52.124;5.196;2022-08-04T02:53:10;4.60;;;2.15;;
20734;SDS011;10528;52.124;5.196;2022-08-04T02:55:40;4.95;;;1.90;;
20734;SDS011;10528;52.124;5.196;2022-08-04T02:58:21;4.05;;;1.88;;
20734;SDS011;10528;52.124;5.196;2022-08-04T03:00:51;7.80;;;2.40;;
20734;SDS011;10528;52.124;5.196;2022-08-04T03:03:20;5.00;;;2.05;;
20734;SDS011;10528;52.124;5.196;2022-08-04T03:08:45;4.70;;;2.05;;
20734;SDS011;10528;52.124;5.196;2022-08-04T03:15:09;5.32;;;2.17;;
20734;SDS011;10528;52.124;5.196;2022-08-04T03:20:45;4.57;;;2.30;;
20734;SDS011;10528;52.124;5.196;2022-08-04T03:47:03;3.50;;;2.08;;
20734;SDS011;10528;52.124;5.196;2022-08-04T03:50:30;4.75;;;1.88;;
20734;SDS011;10528;52.124;5.196;2022-08-04T03:53:20;3.80;;;1.75;;
20734;SDS011;10528;52.124;5.196;2022-08-04T03:56:15;4.75;;;2.08;;
20734;SDS011;10528;52.124;5.196;2022-08-04T04:01:55;6.88;;;2.25;;
20734;SDS011;10528;52.124;5.196;2022-08-04T04:14:38;5.03;;;2.70;;
20734;SDS011;10528;52.124;5.196;2022-08-04T04:17:51;5.22;;;2.63;;
20734;SDS011;10528;52.124;5.196;2022-08-04T04:20:59;5.80;;;2.20;;
20734;SDS011;10528;52.124;5.196;2022-08-04T04:24:01;5.15;;;2.42;;
20734;SDS011;10528;52.124;5.196;2022-08-04T04:27:07;6.95;;;2.20;;
20734;SDS011;10528;52.124;5.196;2022-08-04T04:29:47;5.72;;;2.10;;
20734;SDS011;10528;52.124;5.196;2022-08-04T04:32:41;7.03;;;2.35;;
20734;SDS011;10528;52.124;5.196;2022-08-04T04:35:40;5.85;;;2.47;;
20734;SDS011;10528;52.124;5.196;2022-08-04T04:44:51;5.57;;;2.47;;
20734;SDS011;10528;52.124;5.196;2022-08-04T04:50:50;5.55;;;2.53;;
20734;SDS011;10528;52.124;5.196;2022-08-04T04:53:34;9.23;;;2.55;;
20734;SDS011;10528;52.124;5.196;2022-08-04T04:56:24;9.40;;;2.90;;
20734;SDS011;10528;52.124;5.196;2022-08-04T04:59:37;4.90;;;2.10;;
20734;SDS011;10528;52.124;5.196;2022-08-04T05:08:34;5.30;;;2.40;;
20734;SDS011;10528;52.124;5.196;2022-08-04T05:25:45;4.57;;;2.28;;
20734;SDS011;10528;52.124;5.196;2022-08-04T05:28:37;5.18;;;2.42;;
20734;SDS011;10528;52.124;5.196;2022-08-04T05:31:11;9.23;;;2.40;;
20734;SDS011;10528;52.124;5.196;2022-08-04T05:33:55;9.27;;;2.65;;
20734;SDS011;10528;52.124;5.196;2022-08-04T05:36:38;5.82;;;2.20;;
20734;SDS011;10528;52.124;5.196;2022-08-04T05:39:14;6.90;;;3.15;;
20734;SDS011;10528;52.124;5.196;2022-08-04T05:41:48;7.03;;;3.40;;
20734;SDS011;10528;52.124;5.196;2022-08-04T05:44:24;4.55;;;2.60;;
20734;SDS011;10528;52.124;5.196;2022-08-04T05:46:56;6.13;;;3.00;;
20734;SDS011;10528;52.124;5.196;2022-08-04T05:49:25;6.22;;;2.50;;
20734;SDS011;10528;52.124;5.196;2022-08-04T05:51:55;5.68;;;3.10;;
20734;SDS011;10528;52.124;5.196;2022-08-04T05:54:26;7.72;;;2.38;;
20734;SDS011;10528;52.124;5.196;2022-08-04T05:56:57;5.50;;;2.78;;
20734;SDS011;10528;52.124;5.196;2022-08-04T05:59:25;4.65;;;2.33;;
20734;SDS011;10528;52.124;5.196;2022-08-04T06:01:55;4.88;;;2.05;;
20734;SDS011;10528;52.124;5.196;2022-08-04T06:04:36;5.75;;;2.00;;
20734;SDS011;10528;52.124;5.196;2022-08-04T06:07:07;6.80;;;2.40;;
20734;SDS011;10528;52.124;5.196;2022-08-04T06:09:37;4.97;;;2.10;;
20734;SDS011;10528;52.124;5.196;2022-08-04T06:12:08;6.18;;;1.90;;
20734;SDS011;10528;52.124;5.196;2022-08-04T06:14:47;4.72;;;1.88;;
20734;SDS011;10528;52.124;5.196;2022-08-04T06:17:27;4.68;;;1.80;;
20734;SDS011;10528;52.124;5.196;2022-08-04T06:20:18;7.65;;;2.05;;
20734;SDS011;10528;52.124;5.196;2022-08-04T06:22:51;4.15;;;1.77;;
20734;SDS011;10528;52.124;5.196;2022-08-04T06:25:23;7.63;;;2.58;;
20734;SDS011;10528;52.124;5.196;2022-08-04T06:27:56;4.07;;;2.13;;
20734;SDS011;10528;52.124;5.196;2022-08-04T06:30:27;4.93;;;1.90;;
20734;SDS011;10528;52.124;5.196;2022-08-04T06:32:57;5.88;;;2.22;;
20734;SDS011;10528;52.124;5.196;2022-08-04T06:35:30;4.45;;;2.10;;
20734;SDS011;10528;52.124;5.196;2022-08-04T06:37:59;7.00;;;2.67;;
20734;SDS011;10528;52.124;5.196;2022-08-04T06:40:28;6.65;;;2.00;;
20734;SDS011;10528;52.124;5.196;2022-08-04T06:42:59;5.00;;;1.92;;
20734;SDS011;10528;52.124;5.196;2022-08-04T06:45:30;5.22;;;2.35;;
20734;SDS011;10528;52.124;5.196;2022-08-04T06:48:00;7.72;;;2.67;;
20734;SDS011;10528;52.124;5.196;2022-08-04T06:50:30;5.28;;;2.17;;
20734;SDS011;10528;52.124;5.196;2022-08-04T06:53:20;6.15;;;2.28;;
20734;SDS011;10528;52.124;5.196;2022-08-04T06:55:48;5.95;;;1.92;;
20734;SDS011;10528;52.124;5.196;2022-08-04T06:58:18;5.43;;;2.30;;
20734;SDS011;10528;52.124;5.196;2022-08-04T07:00:47;6.47;;;1.60;;
20734;SDS011;10528;52.124;5.196;2022-08-04T07:03:16;6.38;;;1.83;;
20734;SDS011;10528;52.124;5.196;2022-08-04T07:05:48;5.85;;;1.80;;
20734;SDS011;10528;52.124;5.196;2022-08-04T07:08:16;7.00;;;2.40;;
20734;SDS011;10528;52.124;5.196;2022-08-04T07:10:45;4.22;;;1.80;;
20734;SDS011;10528;52.124;5.196;2022-08-04T07:13:12;8.55;;;2.20;;
20734;SDS011;10528;52.124;5.196;2022-08-04T07:15:41;6.30;;;1.80;;
20734;SDS011;10528;52.124;5.196;2022-08-04T07:18:11;6.38;;;2.08;;
20734;SDS011;10528;52.124;5.196;2022-08-04T07:20:41;8.55;;;1.90;;
20734;SDS011;10528;52.124;5.196;2022-08-04T07:23:13;5.47;;;2.10;;
20734;SDS011;10528;52.124;5.196;2022-08-04T07:25:49;9.00;;;2.20;;
20734;SDS011;10528;52.124;5.196;2022-08-04T07:28:37;9.73;;;2.65;;
20734;SDS011;10528;52.124;5.196;2022-08-04T07:33:58;5.70;;;1.88;;
20734;SDS011;10528;52.124;5.196;2022-08-04T07:36:48;6.72;;;2.03;;
20734;SDS011;10528;52.124;5.196;2022-08-04T07:39:22;4.22;;;2.15;;
20734;SDS011;10528;52.124;5.196;2022-08-04T07:41:55;4.68;;;2.00;;
20734;SDS011;10528;52.124;5.196;2022-08-04T07:44:27;8.52;;;1.98;;
20734;SDS011;10528;52.124;5.196;2022-08-04T07:46:57;7.38;;;2.40;;
20734;SDS011;10528;52.124;5.196;2022-08-04T07:49:25;4.10;;;2.00;;
20734;SDS011;10528;52.124;5.196;2022-08-04T07:52:13;5.43;;;1.92;;
20734;SDS011;10528;52.124;5.196;2022-08-04T07:54:41;9.95;;;2.20;;
20734;SDS011;10528;52.124;5.196;2022-08-04T07:57:09;7.57;;;2.00;;
20734;SDS011;10528;52.124;5.196;2022-08-04T07:59:56;9.27;;;2.28;;
20734;SDS011;10528;52.124;5.196;2022-08-04T08:02:23;5.38;;;1.90;;
20734;SDS011;10528;52.124;5.196;2022-08-04T08:04:51;5.85;;;1.75;;
20734;SDS011;10528;52.124;5.196;2022-08-04T08:07:19;5.40;;;1.73;;
20734;SDS011;10528;52.124;5.196;2022-08-04T08:09:46;5.40;;;1.90;;
20734;SDS011;10528;52.124;5.196;2022-08-04T08:12:14;4.55;;;1.70;;
20734;SDS011;10528;52.124;5.196;2022-08-04T08:15:01;5.43;;;2.00;;
20734;SDS011;10528;52.124;5.196;2022-08-04T08:17:32;7.10;;;1.80;;
20734;SDS011;10528;52.124;5.196;2022-08-04T08:20:19;8.02;;;1.60;;
20734;SDS011;10528;52.124;5.196;2022-08-04T08:22:55;5.75;;;1.83;;
20734;SDS011;10528;52.124;5.196;2022-08-04T08:25:24;6.65;;;1.98;;
20734;SDS011;10528;52.124;5.196;2022-08-04T08:27:51;3.88;;;1.65;;
20734;SDS011;10528;52.124;5.196;2022-08-04T08:30:21;6.10;;;1.92;;
20734;SDS011;10528;52.124;5.196;2022-08-04T08:32:58;6.40;;;1.85;;
20734;SDS011;10528;52.124;5.196;2022-08-04T08:35:32;5.65;;;1.70;;
20734;SDS011;10528;52.124;5.196;2022-08-04T08:38:23;4.03;;;1.60;;
20734;SDS011;10528;52.124;5.196;2022-08-04T08:41:16;6.13;;;1.50;;
20734;SDS011;10528;52.124;5.196;2022-08-04T09:11:41;9.70;;;1.40;;
20734;SDS011;10528;52.124;5.196;2022-08-04T09:14:20;3.40;;;1.30;;
20734;SDS011;10528;52.124;5.196;2022-08-04T09:17:01;2.53;;;1.35;;
20734;SDS011;10528;52.124;5.196;2022-08-04T09:19:38;3.60;;;1.38;;
20734;SDS011;10528;52.124;5.196;2022-08-04T09:30:39;4.22;;;1.25;;
20734;SDS011;10528;52.124;5.196;2022-08-04T09:33:23;5.38;;;1.60;;
20734;SDS011;10528;52.124;5.196;2022-08-04T09:37:16;3.47;;;1.35;;
20734;SDS011;10528;52.124;5.196;2022-08-04T09:39:23;4.20;;;1.20;;
20734;SDS011;10528;52.124;5.196;2022-08-04T09:47:54;7.28;;;1.23;;
20734;SDS011;10528;52.124;5.196;2022-08-04T09:56:31;4.15;;;1.00;;
20734;SDS011;10528;52.124;5.196;2022-08-04T09:59:10;3.15;;;1.30;;
20734;SDS011;10528;52.124;5.196;2022-08-04T10:01:56;3.92;;;1.13;;
20734;SDS011;10528;52.124;5.196;2022-08-04T10:04:32;3.00;;;1.27;;
20734;SDS011;10528;52.124;5.196;2022-08-04T10:07:26;3.13;;;1.30;;
20734;SDS011;10528;52.124;5.196;2022-08-04T10:10:26;3.42;;;1.05;;
20734;SDS011;10528;52.124;5.196;2022-08-04T10:16:22;2.72;;;1.10;;
20734;SDS011;10528;52.124;5.196;2022-08-04T10:27:48;2.50;;;1.20;;
20734;SDS011;10528;52.124;5.196;2022-08-04T10:30:21;2.60;;;1.08;;
20734;SDS011;10528;52.124;5.196;2022-08-04T10:36:10;3.65;;;1.42;;
20734;SDS011;10528;52.124;5.196;2022-08-04T10:39:01;2.42;;;1.13;;
20734;SDS011;10528;52.124;5.196;2022-08-04T10:41:58;2.85;;;1.20;;
20734;SDS011;10528;52.124;5.196;2022-08-04T10:45:07;3.78;;;1.20;;
20734;SDS011;10528;52.124;5.196;2022-08-04T10:47:43;1.88;;;1.05;;
20734;SDS011;10528;52.124;5.196;2022-08-04T10:50:36;3.03;;;1.08;;
20734;SDS011;10528;52.124;5.196;2022-08-04T10:53:12;2.63;;;1.30;;
20734;SDS011;10528;52.124;5.196;2022-08-04T10:55:47;5.03;;;1.20;;
20734;SDS011;10528;52.124;5.196;2022-08-04T10:58:38;3.75;;;1.05;;
20734;SDS011;10528;52.124;5.196;2022-08-04T11:01:16;2.55;;;0.90;;
20734;SDS011;10528;52.124;5.196;2022-08-04T11:07:10;2.97;;;1.00;;
20734;SDS011;10528;52.124;5.196;2022-08-04T11:09:40;5.30;;;1.27;;
20734;SDS011;10528;52.124;5.196;2022-08-04T11:12:18;2.40;;;0.80;;
20734;SDS011;10528;52.124;5.196;2022-08-04T11:14:57;5.55;;;1.20;;
20734;SDS011;10528;52.124;5.196;2022-08-04T11:17:35;2.40;;;1.17;;
20734;SDS011;10528;52.124;5.196;2022-08-04T11:20:14;4.82;;;1.48;;
20734;SDS011;10528;52.124;5.196;2022-08-04T11:23:03;3.50;;;1.20;;
20734;SDS011;10528;52.124;5.196;2022-08-04T11:28:23;3.42;;;1.20;;
20734;SDS011;10528;52.124;5.196;2022-08-04T11:31:18;2.85;;;1.10;;
20734;SDS011;10528;52.124;5.196;2022-08-04T11:39:50;2.92;;;1.20;;
20734;SDS011;10528;52.124;5.196;2022-08-04T11:42:36;3.10;;;1.05;;
20734;SDS011;10528;52.124;5.196;2022-08-04T11:48:09;8.13;;;1.17;;
20734;SDS011;10528;52.124;5.196;2022-08-04T11:50:51;5.93;;;1.55;;
20734;SDS011;10528;52.124;5.196;2022-08-04T11:53:24;2.75;;;1.30;;
20734;SDS011;10528;52.124;5.196;2022-08-04T11:56:03;6.72;;;1.85;;
20734;SDS011;10528;52.124;5.196;2022-08-04T11:58:36;1.73;;;1.00;;
20734;SDS011;10528;52.124;5.196;2022-08-04T12:01:24;7.43;;;2.60;;
20734;SDS011;10528;52.124;5.196;2022-08-04T12:04:02;5.28;;;1.42;;
20734;SDS011;10528;52.124;5.196;2022-08-04T12:06:47;4.22;;;0.98;;
20734;SDS011;10528;52.124;5.196;2022-08-04T12:09:54;3.80;;;1.33;;
20734;SDS011;10528;52.124;5.196;2022-08-04T12:16:00;3.15;;;1.40;;
20734;SDS011;10528;52.124;5.196;2022-08-04T12:18:44;2.90;;;1.30;;
20734;SDS011;10528;52.124;5.196;2022-08-04T12:21:40;4.53;;;1.58;;
20734;SDS011;10528;52.124;5.196;2022-08-04T12:24:26;3.13;;;1.50;;
20734;SDS011;10528;52.124;5.196;2022-08-04T12:27:09;4.05;;;1.27;;
20734;SDS011;10528;52.124;5.196;2022-08-04T12:29:42;4.40;;;1.35;;
20734;SDS011;10528;52.124;5.196;2022-08-04T12:32:36;5.18;;;1.42;;
20734;SDS011;10528;52.124;5.196;2022-08-04T12:35:24;3.00;;;1.20;;
20734;SDS011;10528;52.124;5.196;2022-08-04T12:38:02;3.47;;;1.40;;
20734;SDS011;10528;52.124;5.196;2022-08-04T12:40:34;2.35;;;1.52;;
20734;SDS011;10528;52.124;5.196;2022-08-04T12:43:08;3.30;;;1.58;;
20734;SDS011;10528;52.124;5.196;2022-08-04T12:45:48;3.47;;;1.42;;
20734;SDS011;10528;52.124;5.196;2022-08-04T12:48:19;2.92;;;1.45;;
20734;SDS011;10528;52.124;5.196;2022-08-04T12:50:49;3.05;;;1.38;;
20734;SDS011;10528;52.124;5.196;2022-08-04T12:53:19;3.03;;;1.20;;
20734;SDS011;10528;52.124;5.196;2022-08-04T12:55:57;2.85;;;1.33;;
20734;SDS011;10528;52.124;5.196;2022-08-04T12:58:28;3.55;;;1.27;;
20734;SDS011;10528;52.124;5.196;2022-08-04T13:01:19;2.97;;;1.30;;
20734;SDS011;10528;52.124;5.196;2022-08-04T13:04:15;2.00;;;1.10;;
20734;SDS011;10528;52.124;5.196;2022-08-04T13:07:02;2.80;;;1.27;;
20734;SDS011;10528;52.124;5.196;2022-08-04T13:09:50;1.90;;;1.00;;
20734;SDS011;10528;52.124;5.196;2022-08-04T13:12:25;4.82;;;1.17;;
20734;SDS011;10528;52.124;5.196;2022-08-04T13:14:59;2.78;;;1.20;;
20734;SDS011;10528;52.124;5.196;2022-08-04T13:17:45;1.77;;;1.00;;
20734;SDS011;10528;52.124;5.196;2022-08-04T13:20:40;2.35;;;1.20;;
20734;SDS011;10528;52.124;5.196;2022-08-04T13:23:11;2.65;;;0.90;;
20734;SDS011;10528;52.124;5.196;2022-08-04T13:26:01;2.45;;;1.00;;
20734;SDS011;10528;52.124;5.196;2022-08-04T13:28:51;2.85;;;1.08;;
20734;SDS011;10528;52.124;5.196;2022-08-04T13:31:25;2.60;;;0.90;;
20734;SDS011;10528;52.124;5.196;2022-08-04T13:34:05;1.88;;;0.93;;
20734;SDS011;10528;52.124;5.196;2022-08-04T13:36:44;2.22;;;1.20;;
20734;SDS011;10528;52.124;5.196;2022-08-04T13:39:16;3.60;;;1.05;;
20734;SDS011;10528;52.124;5.196;2022-08-04T13:41:51;3.22;;;0.95;;
20734;SDS011;10528;52.124;5.196;2022-08-04T13:44:26;2.30;;;0.90;;
20734;SDS011;10528;52.124;5.196;2022-08-04T13:46:58;2.75;;;1.05;;
20734;SDS011;10528;52.124;5.196;2022-08-04T13:49:39;5.03;;;1.15;;
20734;SDS011;10528;52.124;5.196;2022-08-04T13:52:26;2.35;;;1.17;;
20734;SDS011;10528;52.124;5.196;2022-08-04T13:54:53;2.50;;;1.00;;
20734;SDS011;10528;52.124;5.196;2022-08-04T13:57:21;2.33;;;0.80;;
20734;SDS011;10528;52.124;5.196;2022-08-04T13:59:57;2.88;;;0.88;;
20734;SDS011;10528;52.124;5.196;2022-08-04T14:05:08;2.03;;;1.00;;
20734;SDS011;10528;52.124;5.196;2022-08-04T14:08:06;1.95;;;0.90;;
20734;SDS011;10528;52.124;5.196;2022-08-04T14:10:40;2.67;;;1.00;;
20734;SDS011;10528;52.124;5.196;2022-08-04T14:13:07;4.10;;;1.00;;
20734;SDS011;10528;52.124;5.196;2022-08-04T14:15:39;3.03;;;1.00;;
20734;SDS011;10528;52.124;5.196;2022-08-04T14:18:29;3.72;;;1.00;;
20734;SDS011;10528;52.124;5.196;2022-08-04T14:21:05;3.67;;;1.00;;
20734;SDS011;10528;52.124;5.196;2022-08-04T14:29:16;1.10;;;0.75;;
20734;SDS011;10528;52.124;5.196;2022-08-04T14:32:04;2.03;;;0.90;;
20734;SDS011;10528;52.124;5.196;2022-08-04T14:34:41;2.03;;;1.10;;
20734;SDS011;10528;52.124;5.196;2022-08-04T14:37:12;1.45;;;0.93;;
20734;SDS011;10528;52.124;5.196;2022-08-04T14:39:50;2.80;;;1.17;;
20734;SDS011;10528;52.124;5.196;2022-08-04T14:42:41;2.63;;;1.55;;
20734;SDS011;10528;52.124;5.196;2022-08-04T14:45:34;1.95;;;0.90;;
20734;SDS011;10528;52.124;5.196;2022-08-04T14:48:20;3.83;;;1.20;;
20734;SDS011;10528;52.124;5.196;2022-08-04T14:50:49;3.25;;;1.17;;
20734;SDS011;10528;52.124;5.196;2022-08-04T14:53:18;3.55;;;0.95;;
20734;SDS011;10528;52.124;5.196;2022-08-04T14:55:48;1.95;;;0.90;;
20734;SDS011;10528;52.124;5.196;2022-08-04T15:01:04;2.88;;;1.10;;
20734;SDS011;10528;52.124;5.196;2022-08-04T15:03:43;3.97;;;1.13;;
20734;SDS011;10528;52.124;5.196;2022-08-04T15:06:25;4.07;;;1.17;;
20734;SDS011;10528;52.124;5.196;2022-08-04T15:08:55;4.32;;;0.98;;
20734;SDS011;10528;52.124;5.196;2022-08-04T15:11:25;1.73;;;0.80;;
20734;SDS011;10528;52.124;5.196;2022-08-04T15:13:54;3.78;;;0.90;;
20734;SDS011;10528;52.124;5.196;2022-08-04T15:16:23;1.98;;;0.88;;
20734;SDS011;10528;52.124;5.196;2022-08-04T15:18:53;3.03;;;0.90;;
20734;SDS011;10528;52.124;5.196;2022-08-04T15:21:25;2.20;;;1.02;;
20734;SDS011;10528;52.124;5.196;2022-08-04T15:23:57;3.00;;;1.20;;
20734;SDS011;10528;52.124;5.196;2022-08-04T15:26:28;2.22;;;0.90;;
20734;SDS011;10528;52.124;5.196;2022-08-04T15:29:26;2.42;;;0.85;;
20734;SDS011;10528;52.124;5.196;2022-08-04T15:32:22;2.88;;;1.10;;
20734;SDS011;10528;52.124;5.196;2022-08-04T15:34:51;2.00;;;0.90;;
20734;SDS011;10528;52.124;5.196;2022-08-04T15:37:36;3.38;;;0.85;;
20734;SDS011;10528;52.124;5.196;2022-08-04T15:42:45;2.92;;;0.95;;
20734;SDS011;10528;52.124;5.196;2022-08-04T15:45:24;2.10;;;1.20;;
20734;SDS011;10528;52.124;5.196;2022-08-04T15:53:23;1.70;;;0.85;;
20734;SDS011;10528;52.124;5.196;2022-08-04T15:58:53;2.50;;;1.05;;
20734;SDS011;10528;52.124;5.196;2022-08-04T16:01:20;3.60;;;1.30;;
20734;SDS011;10528;52.124;5.196;2022-08-04T16:03:49;2.92;;;1.17;;
20734;SDS011;10528;52.124;5.196;2022-08-04T16:09:02;1.60;;;0.90;;
20734;SDS011;10528;52.124;5.196;2022-08-04T16:19:05;3.78;;;0.90;;
20734;SDS011;10528;52.124;5.196;2022-08-04T16:22:08;2.28;;;1.10;;
20734;SDS011;10528;52.124;5.196;2022-08-04T16:24:56;4.97;;;1.10;;
20734;SDS011;10528;52.124;5.196;2022-08-04T16:27:34;1.67;;;0.90;;
20734;SDS011;10528;52.124;5.196;2022-08-04T16:30:04;2.35;;;1.00;;
20734;SDS011;10528;52.124;5.196;2022-08-04T16:32:40;2.22;;;1.08;;
20734;SDS011;10528;52.124;5.196;2022-08-04T16:35:23;3.22;;;0.98;;
20734;SDS011;10528;52.124;5.196;2022-08-04T16:37:56;3.17;;;1.00;;
20734;SDS011;10528;52.124;5.196;2022-08-04T16:40:39;2.15;;;0.90;;
20734;SDS011;10528;52.124;5.196;2022-08-04T16:45:52;2.15;;;1.00;;
20734;SDS011;10528;52.124;5.196;2022-08-04T16:48:26;2.53;;;1.27;;
20734;SDS011;10528;52.124;5.196;2022-08-04T16:51:07;2.65;;;1.20;;
20734;SDS011;10528;52.124;5.196;2022-08-04T16:53:41;4.88;;;1.33;;
20734;SDS011;10528;52.124;5.196;2022-08-04T16:56:30;3.28;;;1.00;;
20734;SDS011;10528;52.124;5.196;2022-08-04T16:59:04;1.42;;;0.90;;
20734;SDS011;10528;52.124;5.196;2022-08-04T17:01:37;4.18;;;1.30;;
20734;SDS011;10528;52.124;5.196;2022-08-04T17:04:13;2.17;;;1.02;;
20734;SDS011;10528;52.124;5.196;2022-08-04T17:06:41;3.75;;;1.00;;
20734;SDS011;10528;52.124;5.196;2022-08-04T17:09:15;3.33;;;0.93;;
20734;SDS011;10528;52.124;5.196;2022-08-04T17:11:45;4.35;;;1.17;;
20734;SDS011;10528;52.124;5.196;2022-08-04T17:14:19;2.75;;;1.48;;
20734;SDS011;10528;52.124;5.196;2022-08-04T17:16:53;7.93;;;1.25;;
20734;SDS011;10528;52.124;5.196;2022-08-04T17:19:23;2.53;;;1.00;;
20734;SDS011;10528;52.124;5.196;2022-08-04T17:21:52;3.97;;;1.10;;
20734;SDS011;10528;52.124;5.196;2022-08-04T17:24:38;3.50;;;1.10;;
20734;SDS011;10528;52.124;5.196;2022-08-04T17:27:06;3.10;;;0.90;;
20734;SDS011;10528;52.124;5.196;2022-08-04T17:29:53;3.88;;;0.95;;
20734;SDS011;10528;52.124;5.196;2022-08-04T17:32:21;2.40;;;1.08;;
20734;SDS011;10528;52.124;5.196;2022-08-04T17:34:50;2.70;;;1.00;;
20734;SDS011;10528;52.124;5.196;2022-08-04T17:37:21;3.30;;;1.10;;
20734;SDS011;10528;52.124;5.196;2022-08-04T17:40:10;3.65;;;1.10;;
20734;SDS011;10528;52.124;5.196;2022-08-04T17:43:00;2.80;;;1.00;;
20734;SDS011;10528;52.124;5.196;2022-08-04T17:54:36;2.72;;;1.10;;
20734;SDS011;10528;52.124;5.196;2022-08-04T17:57:26;2.83;;;1.15;;
20734;SDS011;10528;52.124;5.196;2022-08-04T17:59:54;3.00;;;1.05;;
20734;SDS011;10528;52.124;5.196;2022-08-04T18:02:29;3.78;;;1.23;;
20734;SDS011;10528;52.124;5.196;2022-08-04T18:05:03;2.92;;;1.20;;
20734;SDS011;10528;52.124;5.196;2022-08-04T18:07:42;2.63;;;1.10;;
20734;SDS011;10528;52.124;5.196;2022-08-04T18:10:39;3.15;;;1.20;;
20734;SDS011;10528;52.124;5.196;2022-08-04T18:13:21;2.70;;;1.00;;
20734;SDS011;10528;52.124;5.196;2022-08-04T18:16:04;2.25;;;0.85;;
20734;SDS011;10528;52.124;5.196;2022-08-04T18:19:07;3.58;;;1.10;;
20734;SDS011;10528;52.124;5.196;2022-08-04T18:21:36;3.00;;;1.10;;
20734;SDS011;10528;52.124;5.196;2022-08-04T18:24:23;4.85;;;1.13;;
20734;SDS011;10528;52.124;5.196;2022-08-04T18:27:11;4.55;;;1.30;;
20734;SDS011;10528;52.124;5.196;2022-08-04T18:29:45;2.88;;;1.20;;
20734;SDS011;10528;52.124;5.196;2022-08-04T18:32:32;4.40;;;1.40;;
20734;SDS011;10528;52.124;5.196;2022-08-04T18:35:00;3.53;;;1.33;;
20734;SDS011;10528;52.124;5.196;2022-08-04T18:37:32;3.40;;;1.00;;
20734;SDS011;10528;52.124;5.196;2022-08-04T18:40:22;3.63;;;1.00;;
20734;SDS011;10528;52.124;5.196;2022-08-04T18:42:54;1.95;;;0.98;;
20734;SDS011;10528;52.124;5.196;2022-08-04T18:45:21;2.75;;;1.17;;
20734;SDS011;10528;52.124;5.196;2022-08-04T18:47:59;3.92;;;1.05;;
20734;SDS011;10528;52.124;5.196;2022-08-04T18:50:26;5.72;;;1.45;;
20734;SDS011;10528;52.124;5.196;2022-08-04T18:53:15;4.25;;;1.25;;
20734;SDS011;10528;52.124;5.196;2022-08-04T18:55:42;2.78;;;1.10;;
20734;SDS011;10528;52.124;5.196;2022-08-04T18:58:23;4.63;;;1.05;;
20734;SDS011;10528;52.124;5.196;2022-08-04T19:00:53;3.50;;;1.10;;
20734;SDS011;10528;52.124;5.196;2022-08-04T19:03:21;3.00;;;1.30;;
20734;SDS011;10528;52.124;5.196;2022-08-04T19:05:51;3.05;;;1.55;;
20734;SDS011;10528;52.124;5.196;2022-08-04T19:08:18;4.05;;;1.45;;
20734;SDS011;10528;52.124;5.196;2022-08-04T19:11:03;4.28;;;1.45;;
20734;SDS011;10528;52.124;5.196;2022-08-04T19:13:51;2.42;;;1.30;;
20734;SDS011;10528;52.124;5.196;2022-08-04T19:16:26;5.15;;;1.40;;
20734;SDS011;10528;52.124;5.196;2022-08-04T19:18:56;3.83;;;1.40;;
20734;SDS011;10528;52.124;5.196;2022-08-04T19:21:27;4.35;;;1.35;;
20734;SDS011;10528;52.124;5.196;2022-08-04T19:24:14;4.53;;;1.42;;
20734;SDS011;10528;52.124;5.196;2022-08-04T19:27:03;4.55;;;1.20;;
20734;SDS011;10528;52.124;5.196;2022-08-04T19:29:34;5.70;;;1.42;;
20734;SDS011;10528;52.124;5.196;2022-08-04T19:32:07;5.53;;;1.40;;
20734;SDS011;10528;52.124;5.196;2022-08-04T19:34:41;3.55;;;1.40;;
20734;SDS011;10528;52.124;5.196;2022-08-04T19:37:12;2.90;;;1.38;;
20734;SDS011;10528;52.124;5.196;2022-08-04T19:40:06;4.00;;;1.40;;
20734;SDS011;10528;52.124;5.196;2022-08-04T19:42:38;3.28;;;1.30;;
20734;SDS011;10528;52.124;5.196;2022-08-04T19:45:08;3.38;;;1.25;;
20734;SDS011;10528;52.124;5.196;2022-08-04T19:47:44;4.38;;;1.30;;
20734;SDS011;10528;52.124;5.196;2022-08-04T19:50:31;5.55;;;1.65;;
20734;SDS011;10528;52.124;5.196;2022-08-04T19:52:59;4.28;;;1.38;;
20734;SDS011;10528;52.124;5.196;2022-08-04T19:55:29;5.93;;;1.60;;
20734;SDS011;10528;52.124;5.196;2022-08-04T19:58:03;4.03;;;1.80;;